LGIR/HER METAR and TAF weather

Enter ICAO airport designator
Station Type Date Time Source
LGIR METAR 2019/10/15 21:20 UTC NOAA

LGIR 152120Z VRB03KT 9999 FEW025 18/16 Q1016 NOSIG


Station Type Date Time Source
LGIR Decoded METAR 2019/10/15 21:20 UTC NOAA

Heraklion Airport , Greece (LGIR) 35-20N 025-11E 39M
Oct 15, 2019 - 05:20 PM EDT / 2019.10.15 2120 UTC
Wind: Variable at 3 MPH (3 KT):0
Visibility: greater than 7 mile(s):0
Sky conditions: mostly clear
Temperature: 64 F (18 C)
Dew Point: 60 F (16 C)
Relative Humidity: 88%
Pressure (altimeter): 30.00 in. Hg (1016 hPa)
ob: LGIR 152120Z VRB03KT 9999 FEW025 18/16 Q1016 NOSIG
cycle: 21

Station Type Date Time Source
LGIR TAF 2019/10/15 18:12 UTC NOAA

TAF LGIR 151700Z 1518/1618 32010KT 9999 FEW025
BECMG 1518/1520 18010KT
BECMG 1606/1608 VRB05KT

Example: see airport list